Time;durP1;ratioP1;P1;durP2;ratioP2;P2;SDS_P1;SDS_P2;PMS_P1;PMS_P2;Temp;Humidity;BMP_temperature;BMP_pressure;BME280_temperature;BME280_humidity;BME280_pressure;Samples;Min_cycle;Max_cycle;Signal;HPM_P1;HPM_P2
2022/01/18 00:00:01;;;;;;;39.17;5.13;;;2.20;99.90;;;;;;5031015;28;20049;-93
2022/01/18 00:02:27;;;;;;;32.70;4.13;;;2.30;99.90;;;;;;5030932;28;20060;-93
2022/01/18 00:04:54;;;;;;;33.70;4.78;;;2.20;99.90;;;;;;5030540;28;20050;-93
2022/01/18 00:07:21;;;;;;;39.95;4.57;;;2.30;99.90;;;;;;5030790;28;20149;-92
2022/01/18 00:09:49;;;;;;;37.22;5.47;;;2.20;99.90;;;;;;5030804;28;20570;-93
2022/01/18 00:17:53;;;;;;;17.73;3.55;;;2.20;99.90;;;;;;5015357;28;20054;-92
2022/01/18 00:20:50;;;;;;;32.72;3.92;;;2.20;99.90;;;;;;5030753;28;20062;-92
2022/01/18 00:23:31;;;;;;;24.48;3.88;;;2.20;99.90;;;;;;5015772;28;20065;-92
2022/01/18 00:25:58;;;;;;;27.55;4.25;;;2.10;99.90;;;;;;5031579;28;20058;-92
2022/01/18 00:28:27;;;;;;;27.42;3.35;;;2.10;99.90;;;;;;5031116;28;20553;-92
2022/01/18 00:33:57;;;;;;;23.13;3.38;;;2.00;99.90;;;;;;5016156;28;20181;-92
2022/01/18 00:36:28;;;;;;;22.35;2.92;;;2.00;99.90;;;;;;5031252;28;20049;-93
2022/01/18 00:38:57;;;;;;;25.85;2.90;;;2.00;99.90;;;;;;5031304;28;20068;-92
2022/01/18 00:41:26;;;;;;;26.42;3.67;;;1.90;99.90;;;;;;5031620;28;20042;-93
2022/01/18 00:43:54;;;;;;;27.40;3.78;;;1.90;99.90;;;;;;5031121;28;20645;-93
2022/01/18 00:46:23;;;;;;;22.92;2.97;;;1.80;99.90;;;;;;5031133;28;20070;-92
2022/01/18 00:48:54;;;;;;;32.15;3.58;;;1.80;99.90;;;;;;5031375;28;20550;-92
2022/01/18 00:51:21;;;;;;;25.88;3.95;;;1.60;99.90;;;;;;5031134;28;20162;-92
2022/01/18 00:53:48;;;;;;;25.52;3.17;;;1.70;99.90;;;;;;5030636;28;20074;-92
2022/01/18 00:56:20;;;;;;;24.02;3.70;;;1.70;99.90;;;;;;5031969;28;20129;-93
2022/01/18 00:58:48;;;;;;;16.20;3.30;;;1.70;99.90;;;;;;5032266;28;20209;-92
2022/01/18 01:01:17;;;;;;;17.70;2.90;;;1.80;99.90;;;;;;5031329;28;20550;-92
2022/01/18 01:03:45;;;;;;;23.30;2.95;;;1.70;99.90;;;;;;5031386;28;20410;-93
2022/01/18 01:06:13;;;;;;;24.70;3.80;;;1.80;99.90;;;;;;5031224;28;20046;-93
2022/01/18 01:08:40;;;;;;;27.27;3.45;;;1.80;99.90;;;;;;5030839;28;20459;-92
2022/01/18 01:11:09;;;;;;;22.55;3.35;;;1.90;99.90;;;;;;5031205;28;20068;-91
2022/01/18 01:13:42;;;;;;;25.00;4.35;;;1.90;99.90;;;;;;5030744;28;20046;-92
2022/01/18 01:19:13;;;;;;;29.70;3.00;;;2.00;99.90;;;;;;5015333;28;20049;-92
2022/01/18 01:46:40;;;;;;;18.60;3.30;;;1.70;99.90;;;;;;5016809;28;20046;-92
2022/01/18 01:49:12;;;;;;;22.75;4.07;;;1.70;99.90;;;;;;5031794;28;20049;-93
2022/01/18 01:51:40;;;;;;;18.55;3.53;;;1.70;99.90;;;;;;5032016;28;20069;-92
2022/01/18 01:54:10;;;;;;;22.00;3.17;;;1.80;99.90;;;;;;5031345;28;20137;-92
2022/01/18 01:56:38;;;;;;;27.98;3.55;;;1.80;99.90;;;;;;5032354;28;20045;-93
2022/01/18 01:59:05;;;;;;;25.35;4.05;;;1.90;99.90;;;;;;5031185;28;20050;-92
2022/01/18 02:01:47;;;;;;;24.88;4.07;;;1.90;99.90;;;;;;5030397;28;20054;-92
2022/01/18 02:04:16;;;;;;;21.25;3.90;;;1.90;99.90;;;;;;5030508;28;20116;-92
2022/01/18 02:06:43;;;;;;;28.38;3.85;;;1.90;99.90;;;;;;5030333;28;20141;-93
2022/01/18 02:09:10;;;;;;;25.30;3.80;;;1.90;99.90;;;;;;5030507;28;20049;-92
2022/01/18 02:11:37;;;;;;;23.90;3.08;;;1.90;99.90;;;;;;5031048;28;20060;-92
2022/01/18 02:14:06;;;;;;;20.33;2.95;;;1.90;99.90;;;;;;5030398;28;20132;-92
2022/01/18 02:22:06;;;;;;;17.83;3.30;;;2.00;99.90;;;;;;5014991;28;20422;-92
2022/01/18 02:24:33;;;;;;;26.65;3.67;;;2.00;99.90;;;;;;5030152;28;20546;-92
2022/01/18 02:27:00;;;;;;;24.20;3.15;;;2.00;99.90;;;;;;5030369;28;20471;-92
2022/01/18 02:29:29;;;;;;;29.25;4.35;;;1.90;99.90;;;;;;5030576;28;20112;-93
2022/01/18 02:31:56;;;;;;;23.02;3.70;;;1.90;99.90;;;;;;5031487;28;20130;-92
2022/01/18 02:34:24;;;;;;;21.30;3.50;;;1.90;99.90;;;;;;5031408;28;20054;-93
2022/01/18 02:36:53;;;;;;;25.55;3.75;;;2.00;99.90;;;;;;5031092;28;20100;-93
2022/01/18 02:39:23;;;;;;;16.92;3.22;;;2.00;99.90;;;;;;5030076;28;20069;-92
2022/01/18 02:42:03;;;;;;;23.80;3.53;;;2.00;99.90;;;;;;5015104;28;20050;-92
2022/01/18 02:44:31;;;;;;;20.48;3.47;;;2.00;99.90;;;;;;5031819;28;20082;-92
2022/01/18 02:46:58;;;;;;;27.52;3.88;;;2.00;99.90;;;;;;5031507;28;20053;-92
2022/01/18 02:49:26;;;;;;;32.97;3.63;;;2.00;99.90;;;;;;5033697;28;20050;-92
2022/01/18 02:51:54;;;;;;;17.95;3.38;;;2.00;99.90;;;;;;5033778;28;20141;-92
2022/01/18 02:54:21;;;;;;;20.17;3.22;;;2.00;99.90;;;;;;5033920;28;20133;-93
2022/01/18 02:56:57;;;;;;;25.60;3.65;;;2.00;99.90;;;;;;5034715;28;20145;-92
2022/01/18 02:59:56;;;;;;;26.13;4.10;;;2.00;99.90;;;;;;5033885;28;20133;-92
2022/01/18 03:05:12;;;;;;;16.92;3.30;;;2.00;99.90;;;;;;5019409;28;20372;-92
2022/01/18 03:07:40;;;;;;;23.15;3.50;;;2.00;99.90;;;;;;5033721;28;20076;-92
2022/01/18 03:10:09;;;;;;;21.15;3.22;;;2.00;99.90;;;;;;5033754;28;20046;-92
2022/01/18 03:12:36;;;;;;;15.63;2.58;;;2.00;99.90;;;;;;5033964;28;20448;-92
2022/01/18 03:15:04;;;;;;;25.60;3.85;;;2.00;99.90;;;;;;5033637;28;20054;-92
2022/01/18 03:17:31;;;;;;;25.05;3.08;;;1.90;99.90;;;;;;5033118;28;20045;-92
2022/01/18 03:19:58;;;;;;;26.45;3.60;;;2.00;99.90;;;;;;5032676;28;20111;-92
2022/01/18 03:22:25;;;;;;;17.75;3.03;;;1.90;99.90;;;;;;5034307;28;20057;-92
2022/01/18 03:25:14;;;;;;;22.90;3.53;;;2.00;99.90;;;;;;5033447;28;20443;-92
2022/01/18 03:30:26;;;;;;;23.25;3.05;;;2.00;99.90;;;;;;5018577;28;20137;-92
2022/01/18 03:32:52;;;;;;;26.55;3.28;;;2.00;99.90;;;;;;5033823;28;20077;-92
2022/01/18 03:35:21;;;;;;;19.70;3.55;;;2.00;99.90;;;;;;5033355;28;20129;-92
2022/01/18 03:37:48;;;;;;;20.88;3.80;;;2.00;99.90;;;;;;5032850;28;20049;-92
2022/01/18 03:40:15;;;;;;;19.35;3.25;;;2.10;99.90;;;;;;5032496;28;20080;-92
2022/01/18 03:42:44;;;;;;;18.65;2.97;;;2.10;99.90;;;;;;5034047;28;20133;-92
2022/01/18 03:45:21;;;;;;;17.42;3.17;;;2.10;99.90;;;;;;5034369;28;20060;-92
2022/01/18 03:47:48;;;;;;;20.58;2.97;;;2.10;99.90;;;;;;5039910;28;20070;-91
2022/01/18 03:50:16;;;;;;;18.77;3.72;;;1.90;99.90;;;;;;5046152;28;20050;-92
2022/01/18 03:52:45;;;;;;;23.67;3.78;;;2.00;99.90;;;;;;5034021;28;20145;-92
2022/01/18 03:55:15;;;;;;;23.77;3.47;;;2.00;99.90;;;;;;5033943;28;20080;-92
2022/01/18 03:57:42;;;;;;;21.67;3.33;;;1.90;99.90;;;;;;5033806;28;20133;-92
2022/01/18 04:00:13;;;;;;;18.25;3.22;;;2.00;99.90;;;;;;5032976;28;20050;-92
2022/01/18 04:02:40;;;;;;;22.17;3.13;;;2.00;99.90;;;;;;5032954;28;20065;-92
2022/01/18 04:05:08;;;;;;;15.90;2.83;;;2.00;99.90;;;;;;5033289;28;20057;-92
2022/01/18 04:07:35;;;;;;;26.02;4.28;;;1.80;99.90;;;;;;5033490;28;20054;-92
2022/01/18 04:10:04;;;;;;;20.17;3.92;;;1.70;99.90;;;;;;5033780;28;20088;-92
2022/01/18 04:12:30;;;;;;;15.98;2.97;;;1.80;99.90;;;;;;5033776;28;20141;-92
2022/01/18 04:15:00;;;;;;;22.10;3.35;;;1.80;99.90;;;;;;5033053;28;20473;-92
2022/01/18 04:28:42;;;;;;;26.60;3.53;;;1.70;99.90;;;;;;5016493;28;20490;-92
2022/01/18 04:31:10;;;;;;;20.25;3.28;;;1.70;99.90;;;;;;5031654;28;20080;-92
2022/01/18 04:33:38;;;;;;;24.35;3.92;;;1.70;99.90;;;;;;5030977;28;20053;-91
2022/01/18 04:36:07;;;;;;;22.10;3.38;;;1.70;99.90;;;;;;5031840;28;20141;-92
2022/01/18 04:38:35;;;;;;;25.58;3.35;;;1.80;99.90;;;;;;5031725;28;20064;-92
2022/01/18 04:41:12;;;;;;;31.33;4.05;;;1.80;99.90;;;;;;5016096;28;20077;-92
2022/01/18 04:48:24;;;;;;;21.42;3.45;;;1.90;99.90;;;;;;5032376;28;20117;-90
2022/01/18 04:49:15;;;;;;;19.75;3.92;;;1.90;99.90;;;;;;5017240;28;20140;-92
2022/01/18 04:51:44;;;;;;;24.77;3.70;;;1.90;99.90;;;;;;5032502;28;20064;-92
2022/01/18 04:54:12;;;;;;;23.52;3.90;;;2.00;99.90;;;;;;5031707;28;20573;-92
2022/01/18 04:59:08;;;;;;;24.67;4.75;;;2.00;99.90;;;;;;5014829;28;20092;-92
2022/01/18 05:01:37;;;;;;;21.08;3.75;;;2.00;99.90;;;;;;5030815;28;20050;-92
2022/01/18 05:04:04;;;;;;;19.50;3.42;;;2.00;99.90;;;;;;5032545;28;20068;-93
2022/01/18 05:06:31;;;;;;;37.40;4.43;;;2.00;99.90;;;;;;5029981;28;20060;-94
2022/01/18 05:09:01;;;;;;;23.48;4.10;;;2.00;99.90;;;;;;5029640;28;20053;-93
2022/01/18 05:11:31;;;;;;;33.45;4.28;;;2.00;99.90;;;;;;5029752;28;20168;-93
2022/01/18 05:24:22;;;;;;;18.17;4.20;;;1.60;99.90;;;;;;5014608;28;20060;-93
2022/01/18 05:26:50;;;;;;;25.45;3.55;;;1.60;99.90;;;;;;5029563;28;20046;-93
2022/01/18 05:29:17;;;;;;;22.90;3.42;;;1.50;99.90;;;;;;5029653;28;20433;-93
2022/01/18 05:31:44;;;;;;;17.25;3.20;;;1.50;99.90;;;;;;5029574;28;20050;-93
2022/01/18 05:34:12;;;;;;;24.48;3.72;;;1.50;99.90;;;;;;5029423;28;20049;-93
2022/01/18 05:36:39;;;;;;;26.05;3.53;;;1.50;99.90;;;;;;5029992;28;20121;-93
2022/01/18 05:39:10;;;;;;;25.80;3.70;;;1.40;99.90;;;;;;5029563;28;20064;-93
2022/01/18 05:41:39;;;;;;;19.70;3.67;;;1.50;99.90;;;;;;5029999;28;20045;-93
2022/01/18 05:44:07;;;;;;;25.70;4.22;;;1.50;99.90;;;;;;5029578;28;20054;-92
2022/01/18 05:46:34;;;;;;;18.27;3.22;;;1.50;99.90;;;;;;5029334;28;20096;-93
2022/01/18 05:49:02;;;;;;;21.25;3.67;;;1.50;99.90;;;;;;5029366;28;20072;-92
2022/01/18 05:51:31;;;;;;;26.35;3.97;;;1.60;99.90;;;;;;5014019;28;20070;-93
2022/01/18 05:53:58;;;;;;;24.60;3.75;;;1.60;99.90;;;;;;5029166;28;20152;-93
2022/01/18 05:56:29;;;;;;;21.40;3.30;;;1.60;99.90;;;;;;5029027;28;20050;-93
2022/01/18 05:58:59;;;;;;;26.63;5.15;;;1.70;99.90;;;;;;5029398;28;20140;-93
2022/01/18 06:01:32;;;;;;;25.77;3.80;;;1.70;99.90;;;;;;5029170;28;20069;-88
2022/01/18 06:09:13;;;;;;;28.55;3.95;;;1.80;99.90;;;;;;5014277;28;20136;-92
2022/01/18 06:11:41;;;;;;;29.92;6.93;;;1.80;99.90;;;;;;5029719;28;20054;-93
2022/01/18 06:14:07;;;;;;;32.47;12.90;;;1.90;99.90;;;;;;5030863;28;20150;-93
2022/01/18 06:16:34;;;;;;;36.33;11.55;;;1.90;99.90;;;;;;5013414;28;20080;-93
2022/01/18 06:19:01;;;;;;;30.10;8.02;;;1.90;99.90;;;;;;5012533;28;20056;-94
2022/01/18 06:21:28;;;;;;;27.08;7.75;;;1.90;99.90;;;;;;5029329;28;20410;-93
2022/01/18 06:23:55;;;;;;;31.30;7.07;;;1.90;99.90;;;;;;5032113;28;20053;-93
2022/01/18 06:26:21;;;;;;;23.70;5.95;;;2.00;99.90;;;;;;5032710;28;20049;-93
2022/01/18 06:28:48;;;;;;;22.55;7.30;;;2.00;99.90;;;;;;5032467;28;20052;-93
2022/01/18 06:31:17;;;;;;;33.20;7.85;;;2.00;99.90;;;;;;5032447;28;20046;-93
2022/01/18 06:33:44;;;;;;;33.15;8.65;;;2.10;99.90;;;;;;5032662;28;20137;-93
2022/01/18 06:36:12;;;;;;;31.85;10.05;;;2.10;99.90;;;;;;5032355;28;20132;-93
2022/01/18 06:38:39;;;;;;;36.45;13.65;;;2.10;99.90;;;;;;5015910;28;20062;-93
2022/01/18 06:41:06;;;;;;;84.13;34.25;;;2.10;99.90;;;;;;5015392;28;20045;-93
2022/01/18 06:43:33;;;;;;;68.43;28.67;;;2.00;99.90;;;;;;5015551;28;20076;-94
2022/01/18 06:46:00;;;;;;;125.43;45.25;;;2.00;99.90;;;;;;5016300;28;20138;-93
2022/01/18 06:48:27;;;;;;;58.88;16.33;;;2.00;99.90;;;;;;5016170;28;20065;-93
2022/01/18 06:50:54;;;;;;;45.83;16.77;;;1.90;99.90;;;;;;5015220;28;20573;-93
2022/01/18 06:53:20;;;;;;;61.25;23.83;;;1.80;99.90;;;;;;5015191;28;20060;-94
2022/01/18 06:55:52;;;;;;;36.45;11.05;;;1.90;99.90;;;;;;5015606;28;20050;-94
2022/01/18 06:58:19;;;;;;;28.92;9.20;;;1.80;99.90;;;;;;5015884;28;20050;-94
2022/01/18 07:00:46;;;;;;;24.27;8.25;;;1.80;99.90;;;;;;5031646;28;20062;-93
2022/01/18 07:03:13;;;;;;;36.03;7.47;;;1.90;99.90;;;;;;5031979;28;20493;-93
2022/01/18 07:05:40;;;;;;;24.60;6.68;;;1.90;99.90;;;;;;5031363;28;20058;-94
2022/01/18 07:08:12;;;;;;;26.42;8.13;;;2.00;99.90;;;;;;5031130;28;20065;-94
2022/01/18 07:10:39;;;;;;;34.00;8.70;;;2.00;99.90;;;;;;5032080;28;20060;-93
2022/01/18 07:13:05;;;;;;;30.58;7.20;;;2.00;99.90;;;;;;5031991;28;20429;-93
2022/01/18 07:15:33;;;;;;;27.83;8.77;;;2.00;99.90;;;;;;5031722;28;20048;-93
2022/01/18 07:17:59;;;;;;;46.55;17.95;;;2.10;99.90;;;;;;5031940;28;20062;-94
2022/01/18 07:20:27;;;;;;;30.88;8.82;;;2.20;99.90;;;;;;5014803;28;20080;-94
2022/01/18 07:22:54;;;;;;;35.63;12.85;;;2.20;99.90;;;;;;5031567;28;20073;-94
2022/01/18 07:25:20;;;;;;;40.65;11.23;;;2.30;99.90;;;;;;5015226;28;20060;-94
2022/01/18 07:27:47;;;;;;;38.80;8.63;;;2.20;99.90;;;;;;5015325;28;20046;-93
2022/01/18 07:30:14;;;;;;;27.08;6.80;;;2.20;99.90;;;;;;5031434;28;20132;-93
2022/01/18 07:32:41;;;;;;;35.63;7.47;;;2.20;99.90;;;;;;5031413;28;20133;-94
2022/01/18 07:35:09;;;;;;;25.10;8.60;;;2.20;99.90;;;;;;5029874;28;20054;-93
2022/01/18 07:37:35;;;;;;;43.95;12.15;;;2.20;99.90;;;;;;5031391;28;20076;-93
2022/01/18 07:40:03;;;;;;;45.25;10.13;;;2.30;99.90;;;;;;5014264;28;20054;-92
2022/01/18 07:42:31;;;;;;;37.78;11.50;;;2.20;99.90;;;;;;5014812;28;20136;-94
2022/01/18 07:44:58;;;;;;;34.13;8.75;;;2.30;99.90;;;;;;5013817;28;20056;-94
2022/01/18 07:47:24;;;;;;;39.72;10.18;;;2.40;99.90;;;;;;5030330;28;20069;-93
2022/01/18 07:49:51;;;;;;;38.25;10.15;;;2.30;99.90;;;;;;5013667;28;20064;-94
2022/01/18 07:52:18;;;;;;;34.38;9.48;;;2.30;99.90;;;;;;5015106;28;20136;-93
2022/01/18 07:54:45;;;;;;;23.73;8.98;;;2.30;99.90;;;;;;5030588;28;20049;-94
2022/01/18 07:57:14;;;;;;;35.45;11.73;;;2.50;99.90;;;;;;5031313;28;20068;-93
2022/01/18 07:59:40;;;;;;;32.78;10.40;;;2.40;99.90;;;;;;5014665;28;20076;-94
2022/01/18 08:02:07;;;;;;;53.88;12.70;;;2.40;99.90;;;;;;5014373;28;20046;-94
2022/01/18 08:04:34;;;;;;;32.40;8.55;;;2.30;99.90;;;;;;5014493;28;20152;-94
2022/01/18 08:07:01;;;;;;;29.45;8.10;;;2.30;99.90;;;;;;5031015;28;20045;-93
2022/01/18 08:09:28;;;;;;;40.20;9.63;;;2.40;99.90;;;;;;5031113;28;20060;-94
2022/01/18 08:11:55;;;;;;;28.90;8.75;;;2.50;99.90;;;;;;5030715;28;20046;-94
2022/01/18 08:14:22;;;;;;;34.42;9.88;;;2.50;99.90;;;;;;5030451;28;20132;-94
2022/01/18 08:17:01;;;;;;;35.95;11.20;;;2.50;99.90;;;;;;5029501;28;20050;-94
2022/01/18 08:19:29;;;;;;;48.00;11.23;;;2.60;99.90;;;;;;5014032;28;20052;-93
2022/01/18 08:21:57;;;;;;;33.17;8.48;;;2.40;99.90;;;;;;5014236;28;20077;-94
2022/01/18 08:24:24;;;;;;;47.83;12.50;;;2.30;99.90;;;;;;5030615;28;20064;-93
2022/01/18 08:26:51;;;;;;;32.47;9.10;;;2.30;99.90;;;;;;5014202;28;20505;-93
2022/01/18 08:29:18;;;;;;;42.78;11.38;;;2.40;99.90;;;;;;5030475;28;20049;-94
2022/01/18 08:32:05;;;;;;;42.08;13.73;;;2.30;99.90;;;;;;5014344;28;20498;-93
2022/01/18 08:34:33;;;;;;;44.80;14.05;;;2.30;99.90;;;;;;5014861;28;20482;-93
2022/01/18 08:37:00;;;;;;;41.13;16.80;;;2.30;99.90;;;;;;5014017;28;20067;-93
2022/01/18 08:39:26;;;;;;;36.83;14.30;;;2.30;99.90;;;;;;5013489;28;20108;-93
2022/01/18 08:41:54;;;;;;;104.00;42.65;;;2.40;99.90;;;;;;5013944;28;20491;-93
2022/01/18 08:44:21;;;;;;;39.80;14.43;;;2.60;99.90;;;;;;5013713;28;20077;-94
2022/01/18 08:46:48;;;;;;;34.78;11.55;;;2.90;99.90;;;;;;5013242;28;20061;-94
2022/01/18 08:49:15;;;;;;;75.13;35.03;;;3.00;99.90;;;;;;5013969;28;20050;-94
2022/01/18 08:51:41;;;;;;;33.28;15.80;;;3.00;99.90;;;;;;5013861;28;20046;-94
2022/01/18 08:54:08;;;;;;;66.28;33.20;;;3.10;99.90;;;;;;5013483;28;20049;-94
2022/01/18 08:56:35;;;;;;;45.08;19.75;;;3.00;99.90;;;;;;5013482;28;20136;-94
2022/01/18 08:59:19;;;;;;;30.23;11.25;;;3.00;99.90;;;;;;5013809;28;20054;-94
2022/01/18 09:01:46;;;;;;;25.58;8.68;;;3.10;99.90;;;;;;5013696;28;20133;-93
2022/01/18 09:04:12;;;;;;;37.67;15.55;;;3.20;99.90;;;;;;5029780;28;20088;-93
2022/01/18 09:06:40;;;;;;;30.65;13.82;;;3.30;99.90;;;;;;5013393;28;20132;-94
2022/01/18 09:09:08;;;;;;;25.08;11.32;;;3.40;99.90;;;;;;5013527;28;20539;-93
2022/01/18 09:11:36;;;;;;;23.52;8.75;;;3.40;99.90;;;;;;5013280;28;20493;-94
2022/01/18 09:14:03;;;;;;;22.63;9.02;;;3.60;99.90;;;;;;5029818;28;20060;-94
2022/01/18 09:16:30;;;;;;;31.73;12.30;;;4.00;99.90;;;;;;5029903;28;20133;-94
2022/01/18 09:18:57;;;;;;;23.98;8.90;;;4.20;99.90;;;;;;5013425;28;20053;-94
2022/01/18 09:21:26;;;;;;;32.17;11.93;;;4.30;99.90;;;;;;5029840;28;20061;-94
2022/01/18 09:23:53;;;;;;;30.95;11.65;;;4.40;99.90;;;;;;5013378;28;20057;-95
2022/01/18 09:26:21;;;;;;;25.02;9.82;;;4.40;99.90;;;;;;5013376;28;20050;-94
2022/01/18 09:28:47;;;;;;;20.38;6.93;;;4.30;99.90;;;;;;5029748;28;20119;-91
2022/01/18 09:31:14;;;;;;;21.20;5.53;;;4.20;99.90;;;;;;5029642;28;20136;-94
2022/01/18 09:33:41;;;;;;;13.75;4.60;;;4.20;99.90;;;;;;5029459;28;20104;-94
2022/01/18 09:36:08;;;;;;;17.50;4.70;;;4.20;99.90;;;;;;5029350;28;20072;-94
2022/01/18 09:38:35;;;;;;;16.00;5.20;;;4.20;99.90;;;;;;5028878;28;20080;-93
2022/01/18 09:41:08;;;;;;;14.07;4.43;;;4.20;99.90;;;;;;5029013;28;20054;-94
2022/01/18 09:43:37;;;;;;;10.52;3.80;;;4.20;99.90;;;;;;5029192;28;20050;-93
2022/01/18 09:46:05;;;;;;;13.98;4.05;;;4.30;99.90;;;;;;5029315;28;20049;-94
2022/01/18 09:48:32;;;;;;;10.20;3.88;;;4.40;99.90;;;;;;5029473;28;20049;-94
2022/01/18 09:51:00;;;;;;;9.77;4.05;;;4.50;99.90;;;;;;5029152;28;20112;-93
2022/01/18 09:53:27;;;;;;;11.48;3.67;;;4.60;99.90;;;;;;5029101;28;20054;-94
2022/01/18 09:55:54;;;;;;;12.95;3.50;;;4.60;99.90;;;;;;5029291;28;20521;-94
2022/01/18 09:58:21;;;;;;;11.52;2.88;;;4.90;99.90;;;;;;5028975;28;20053;-94
2022/01/18 10:00:50;;;;;;;6.88;2.72;;;5.10;99.90;;;;;;5028966;28;20445;-93
2022/01/18 10:03:34;;;;;;;32.08;17.42;;;5.40;99.90;;;;;;5029250;28;20134;-93
2022/01/18 10:06:02;;;;;;;23.20;7.88;;;5.50;99.90;;;;;;5013017;28;20526;-86
2022/01/18 10:08:35;;;;;;;33.25;13.70;;;5.30;99.90;;;;;;5028648;28;20046;-93
2022/01/18 10:11:13;;;;;;;29.52;10.55;;;5.40;99.90;;;;;;5012834;28;20054;-94
2022/01/18 10:13:42;;;;;;;27.40;10.15;;;5.30;99.90;;;;;;5013029;28;20446;-93
2022/01/18 10:16:21;;;;;;;20.88;8.23;;;5.70;99.90;;;;;;5012689;28;20129;-94
2022/01/18 10:18:56;;;;;;;22.15;8.68;;;5.80;99.90;;;;;;5029116;28;20057;-93
2022/01/18 10:21:24;;;;;;;14.15;7.82;;;6.10;99.90;;;;;;5028800;28;20056;-94
2022/01/18 10:24:08;;;;;;;27.92;13.68;;;6.40;99.90;;;;;;5028745;28;20136;-94
2022/01/18 10:26:37;;;;;;;;;;;6.60;99.90;;;;;;5012706;28;20554;-93
2022/01/18 10:29:06;;;;;;;22.70;8.30;;;6.60;99.90;;;;;;5012618;28;19926;-93
2022/01/18 10:31:56;;;;;;;15.50;7.90;;;6.50;99.90;;;;;;5028862;28;20105;-93
2022/01/18 10:34:41;;;;;;;17.33;5.47;;;6.60;99.90;;;;;;5013505;28;20054;-93
2022/01/18 10:37:13;;;;;;;16.23;5.53;;;6.90;99.90;;;;;;5028778;28;20494;-93
2022/01/18 10:39:48;;;;;;;16.85;5.65;;;7.00;99.90;;;;;;5028606;28;20050;-93
2022/01/18 10:42:18;;;;;;;14.52;5.22;;;7.10;99.90;;;;;;5028640;28;20546;-92
2022/01/18 10:44:47;;;;;;;9.38;3.00;;;7.20;99.90;;;;;;5028914;28;20498;-93
2022/01/18 10:47:16;;;;;;;9.52;2.75;;;7.20;99.90;;;;;;5028549;28;20140;-93
2022/01/18 10:49:47;;;;;;;5.03;2.72;;;7.40;99.90;;;;;;5029329;28;20471;-93
2022/01/18 10:52:21;;;;;;;10.15;4.90;;;7.40;99.90;;;;;;5028833;28;20076;-93
2022/01/18 10:54:51;;;;;;;12.85;3.90;;;7.40;99.90;;;;;;5028280;28;20313;-93
2022/01/18 10:57:27;;;;;;;9.25;3.53;;;7.30;99.90;;;;;;5029215;28;20494;-91
2022/01/18 11:00:03;;;;;;;7.70;3.33;;;7.40;99.90;;;;;;5028512;28;20052;-93
2022/01/18 11:02:35;;;;;;;6.65;3.10;;;7.60;99.90;;;;;;5028394;28;20494;-93
2022/01/18 11:05:25;;;;;;;6.70;2.90;;;7.70;99.90;;;;;;5028252;28;20049;-93
2022/01/18 11:07:54;;;;;;;6.50;2.67;;;7.90;99.90;;;;;;5028626;28;20057;-92
2022/01/18 11:10:24;;;;;;;10.60;2.83;;;8.00;99.90;;;;;;5031554;28;20123;-93
2022/01/18 11:13:04;;;;;;;8.63;4.45;;;8.00;99.90;;;;;;5032227;28;20469;-92
2022/01/18 11:15:33;;;;;;;4.70;4.00;;;7.80;99.90;;;;;;5031941;28;20136;-93
2022/01/18 11:18:03;;;;;;;7.80;5.95;;;7.70;99.90;;;;;;5032119;28;20139;-90
2022/01/18 11:20:33;;;;;;;9.25;5.47;;;7.60;99.90;;;;;;5031863;28;20060;-92
2022/01/18 11:23:03;;;;;;;7.57;3.50;;;7.40;99.90;;;;;;5032158;28;20486;-91
2022/01/18 11:25:30;;;;;;;6.97;2.13;;;7.20;99.90;;;;;;5032041;28;20050;-92
2022/01/18 11:27:59;;;;;;;5.32;2.60;;;7.20;99.90;;;;;;5032063;28;20060;-92
2022/01/18 11:30:32;;;;;;;5.60;1.75;;;7.40;99.90;;;;;;5032636;28;20082;-92
2022/01/18 11:33:04;;;;;;;2.75;2.22;;;7.20;99.90;;;;;;5032446;28;20453;-91
2022/01/18 11:35:48;;;;;;;3.20;1.35;;;6.90;99.90;;;;;;5036448;28;20578;-91
2022/01/18 11:38:33;;;;;;;4.22;1.90;;;6.90;99.90;;;;;;5032071;28;20096;-91
2022/01/18 11:41:06;;;;;;;5.68;2.97;;;6.90;99.90;;;;;;5015369;28;20061;-92
2022/01/18 11:43:39;;;;;;;3.13;2.17;;;6.60;99.90;;;;;;5031379;28;20141;-91
2022/01/18 11:46:34;;;;;;;3.60;2.20;;;6.40;99.90;;;;;;5031703;28;20149;-91
2022/01/18 11:49:16;;;;;;;2.60;2.47;;;6.30;99.90;;;;;;5031713;28;20053;-91
2022/01/18 11:51:57;;;;;;;4.80;1.98;;;6.00;99.90;;;;;;5031438;28;20107;-91
2022/01/18 11:57:22;;;;;;;2.53;1.20;;;6.00;99.90;;;;;;5015994;28;20141;-90
2022/01/18 11:59:50;;;;;;;5.78;2.60;;;6.00;99.90;;;;;;5031004;28;20112;-91
2022/01/18 12:02:30;;;;;;;13.95;8.10;;;6.10;99.90;;;;;;5030834;28;20410;-90
2022/01/18 12:05:00;;;;;;;12.52;7.53;;;6.00;99.90;;;;;;5031165;28;20099;-91
2022/01/18 12:07:36;;;;;;;8.10;5.68;;;6.20;99.90;;;;;;5031224;28;20136;-91
2022/01/18 12:10:31;;;;;;;35.95;19.15;;;6.40;99.90;;;;;;5031102;28;20133;-91
2022/01/18 12:13:26;;;;;;;197.45;110.60;;;6.50;99.90;;;;;;5002801;28;20501;-91
2022/01/18 12:15:56;;;;;;;34.40;21.65;;;6.20;99.90;;;;;;5023223;28;20053;-91
2022/01/18 12:18:29;;;;;;;2.22;1.98;;;6.40;99.90;;;;;;5014503;28;20065;-90
2022/01/18 12:21:16;;;;;;;4.70;4.30;;;6.50;99.90;;;;;;5030004;28;20054;-91
2022/01/18 12:23:43;;;;;;;2.10;1.15;;;6.50;99.90;;;;;;5030730;28;20506;-90
2022/01/18 12:29:24;;;;;;;2.33;1.02;;;6.80;99.90;;;;;;5015403;28;20503;-90
2022/01/18 12:32:16;;;;;;;2.78;1.27;;;6.60;99.90;;;;;;5030643;28;20097;-90
2022/01/18 12:34:47;;;;;;;1.40;1.30;;;6.50;99.90;;;;;;5014975;28;20138;-90
2022/01/18 12:37:19;;;;;;;1.08;1.08;;;6.60;99.90;;;;;;5014174;28;20056;-90
2022/01/18 12:39:49;;;;;;;1.48;1.13;;;6.70;99.90;;;;;;5029597;28;20145;-90
2022/01/18 12:45:13;;;;;;;1.30;0.70;;;7.00;99.90;;;;;;5014964;28;20042;-90
2022/01/18 12:47:46;;;;;;;3.28;1.00;;;7.00;99.90;;;;;;5030507;28;20073;-90
2022/01/18 12:50:19;;;;;;;3.53;1.20;;;7.10;99.90;;;;;;5030125;28;20084;-89
2022/01/18 12:52:52;;;;;;;2.15;1.00;;;7.20;99.90;;;;;;5030052;28;20112;-89
2022/01/18 12:55:30;;;;;;;1.50;0.95;;;7.20;99.90;;;;;;5029597;28;20064;-88
2022/01/18 12:58:10;;;;;;;1.48;1.00;;;7.10;99.90;;;;;;5030131;28;20506;-89
2022/01/18 13:00:44;;;;;;;3.80;1.52;;;7.10;99.90;;;;;;5014179;28;20491;-89
2022/01/18 13:03:23;;;;;;;3.42;1.98;;;7.10;99.90;;;;;;5030088;28;20054;-89
2022/01/18 13:05:54;;;;;;;3.75;1.83;;;7.00;99.90;;;;;;5029691;28;20046;-89
2022/01/18 13:08:24;;;;;;;3.17;2.20;;;6.80;99.90;;;;;;5014315;28;20056;-88
2022/01/18 13:10:53;;;;;;;2.30;2.10;;;6.70;99.90;;;;;;5014075;28;20050;-89
2022/01/18 13:13:28;;;;;;;6.65;2.40;;;6.60;99.90;;;;;;5014269;28;20085;-89
2022/01/18 13:26:58;;;;;;;3.55;1.83;;;6.40;99.90;;;;;;5014073;28;20085;-89
2022/01/18 13:29:28;;;;;;;3.33;1.42;;;6.40;99.90;;;;;;5014464;28;20041;-89
2022/01/18 13:32:00;;;;;;;3.15;1.60;;;6.40;99.90;;;;;;5028554;28;20049;-88
2022/01/18 13:34:37;;;;;;;2.15;1.27;;;6.40;99.90;;;;;;5029372;28;20069;-88
2022/01/18 13:37:08;;;;;;;3.35;1.17;;;6.40;99.90;;;;;;5029203;28;20225;-89
2022/01/18 13:39:47;;;;;;;4.05;1.30;;;6.40;99.90;;;;;;5013909;28;20461;-88
2022/01/18 13:42:19;;;;;;;2.30;1.38;;;6.40;99.90;;;;;;5009041;28;20046;-89
2022/01/18 13:45:26;;;;;;;1.77;1.10;;;6.30;99.90;;;;;;5014079;28;20132;-89
2022/01/18 13:48:03;;;;;;;2.05;1.10;;;6.30;99.90;;;;;;4973210;28;20086;-89
2022/01/18 13:50:41;;;;;;;4.25;0.93;;;6.10;99.90;;;;;;4957215;28;20051;-89
2022/01/18 13:53:08;;;;;;;4.43;0.80;;;6.00;99.90;;;;;;4991434;28;20068;-90
2022/01/18 13:55:37;;;;;;;2.20;1.20;;;6.00;99.90;;;;;;5029299;28;20046;-89
2022/01/18 13:58:05;;;;;;;2.63;1.42;;;6.00;99.90;;;;;;5029732;28;20054;-89
2022/01/18 14:00:32;;;;;;;3.17;1.20;;;6.00;99.90;;;;;;5014165;28;20042;-89
2022/01/18 14:03:00;;;;;;;4.68;1.10;;;6.00;99.90;;;;;;5013982;28;20077;-90
2022/01/18 14:05:27;;;;;;;1.10;1.00;;;6.00;99.90;;;;;;5029335;28;20143;-89
2022/01/18 14:08:05;;;;;;;1.92;1.50;;;6.00;99.90;;;;;;5014186;28;20414;-89
2022/01/18 14:10:33;;;;;;;3.38;1.83;;;5.90;99.90;;;;;;5029467;28;20505;-89
2022/01/18 14:13:01;;;;;;;4.00;1.77;;;6.00;99.90;;;;;;5029285;28;20049;-89
2022/01/18 14:15:44;;;;;;;1.83;1.70;;;5.90;99.90;;;;;;5029200;28;20140;-89
2022/01/18 14:18:11;;;;;;;3.85;1.75;;;6.00;99.90;;;;;;5014295;28;20494;-89
2022/01/18 14:20:40;;;;;;;2.65;2.45;;;6.00;99.90;;;;;;5029193;28;20410;-89
2022/01/18 14:23:18;;;;;;;2.30;1.40;;;5.90;99.90;;;;;;5013793;28;20133;-89
2022/01/18 14:25:50;;;;;;;2.47;1.92;;;5.90;99.90;;;;;;5029380;28;20050;-89
2022/01/18 14:28:18;;;;;;;4.80;2.30;;;5.90;99.90;;;;;;5029258;28;20472;-89
2022/01/18 14:30:48;;;;;;;3.90;2.55;;;5.90;99.90;;;;;;5029204;28;20077;-89
2022/01/18 14:33:15;;;;;;;3.58;2.20;;;5.90;99.90;;;;;;5029404;28;20053;-89
2022/01/18 14:35:45;;;;;;;1.88;1.70;;;5.90;99.90;;;;;;5029342;28;20141;-89
2022/01/18 14:38:14;;;;;;;3.28;3.00;;;5.90;99.90;;;;;;5029270;28;20486;-89
2022/01/18 14:40:46;;;;;;;18.67;11.15;;;5.90;99.90;;;;;;5028870;28;20052;-89
2022/01/18 14:43:26;;;;;;;10.05;6.28;;;5.80;99.90;;;;;;5013101;28;20137;-89